sensor_id;sensor_type;location;lat;lon;timestamp;P1;durP1;ratioP1;P2;durP2;ratioP2
75156;SDS011;63736;50.076;8.198;2024-01-30T09:22:02;7.95;;;4.10;;
75156;SDS011;63736;50.076;8.198;2024-01-30T09:23:33;7.45;;;3.63;;
75156;SDS011;63736;50.076;8.198;2024-01-30T09:25:03;20.73;;;5.03;;
75156;SDS011;63736;50.076;8.198;2024-01-30T09:26:34;8.75;;;3.65;;
75156;SDS011;63736;50.076;8.198;2024-01-30T09:28:04;8.43;;;4.07;;
75156;SDS011;63736;50.076;8.198;2024-01-30T09:29:35;8.45;;;3.78;;
75156;SDS011;63736;50.076;8.198;2024-01-30T09:31:09;9.50;;;3.40;;
75156;SDS011;63736;50.076;8.198;2024-01-30T09:32:40;11.00;;;3.97;;
75156;SDS011;63736;50.076;8.198;2024-01-30T09:34:10;8.80;;;3.93;;
75156;SDS011;63736;50.076;8.198;2024-01-30T09:35:41;8.27;;;3.70;;
75156;SDS011;63736;50.076;8.198;2024-01-30T09:37:11;7.43;;;3.77;;
75156;SDS011;63736;50.076;8.198;2024-01-30T09:38:41;7.73;;;4.10;;
75156;SDS011;63736;50.076;8.198;2024-01-30T09:40:11;6.90;;;3.60;;
75156;SDS011;63736;50.076;8.198;2024-01-30T09:41:49;7.68;;;3.25;;
75156;SDS011;63736;50.076;8.198;2024-01-30T09:43:32;8.63;;;3.80;;
75156;SDS011;63736;50.076;8.198;2024-01-30T09:45:04;12.67;;;4.80;;
75156;SDS011;63736;50.076;8.198;2024-01-30T09:47:45;16.57;;;3.90;;
75156;SDS011;63736;50.076;8.198;2024-01-30T09:49:16;11.63;;;4.00;;
75156;SDS011;63736;50.076;8.198;2024-01-30T09:50:48;10.70;;;3.63;;
75156;SDS011;63736;50.076;8.198;2024-01-30T09:52:18;14.07;;;4.00;;
75156;SDS011;63736;50.076;8.198;2024-01-30T09:53:48;10.73;;;3.88;;
75156;SDS011;63736;50.076;8.198;2024-01-30T09:55:19;8.37;;;4.13;;
75156;SDS011;63736;50.076;8.198;2024-01-30T09:56:49;10.80;;;3.90;;
75156;SDS011;63736;50.076;8.198;2024-01-30T09:58:20;8.90;;;3.77;;
75156;SDS011;63736;50.076;8.198;2024-01-30T09:59:50;9.00;;;4.13;;
75156;SDS011;63736;50.076;8.198;2024-01-30T10:01:21;10.77;;;4.07;;
75156;SDS011;63736;50.076;8.198;2024-01-30T10:02:52;10.70;;;4.13;;
75156;SDS011;63736;50.076;8.198;2024-01-30T10:04:23;13.20;;;4.30;;
75156;SDS011;63736;50.076;8.198;2024-01-30T10:05:53;10.87;;;4.27;;
75156;SDS011;63736;50.076;8.198;2024-01-30T10:07:25;8.45;;;3.88;;
75156;SDS011;63736;50.076;8.198;2024-01-30T10:08:55;13.60;;;4.43;;
75156;SDS011;63736;50.076;8.198;2024-01-30T10:10:25;9.73;;;4.17;;
75156;SDS011;63736;50.076;8.198;2024-01-30T10:11:56;9.27;;;4.20;;
75156;SDS011;63736;50.076;8.198;2024-01-30T10:13:27;14.65;;;4.13;;
75156;SDS011;63736;50.076;8.198;2024-01-30T10:14:57;13.33;;;5.33;;
75156;SDS011;63736;50.076;8.198;2024-01-30T10:16:28;36.20;;;8.65;;
75156;SDS011;63736;50.076;8.198;2024-01-30T10:17:58;37.43;;;9.83;;
75156;SDS011;63736;50.076;8.198;2024-01-30T10:19:28;32.20;;;9.77;;
75156;SDS011;63736;50.076;8.198;2024-01-30T10:20:59;22.77;;;7.20;;
75156;SDS011;63736;50.076;8.198;2024-01-30T10:22:29;27.52;;;6.85;;
75156;SDS011;63736;50.076;8.198;2024-01-30T10:24:00;33.77;;;8.33;;
75156;SDS011;63736;50.076;8.198;2024-01-30T10:25:30;25.60;;;7.87;;
75156;SDS011;63736;50.076;8.198;2024-01-30T10:27:01;31.92;;;7.43;;
75156;SDS011;63736;50.076;8.198;2024-01-30T10:28:32;38.50;;;8.43;;
75156;SDS011;63736;50.076;8.198;2024-01-30T10:30:02;37.03;;;7.90;;
75156;SDS011;63736;50.076;8.198;2024-01-30T10:31:34;28.13;;;7.50;;
75156;SDS011;63736;50.076;8.198;2024-01-30T10:33:04;27.63;;;7.30;;
75156;SDS011;63736;50.076;8.198;2024-01-30T10:34:34;34.27;;;7.70;;
75156;SDS011;63736;50.076;8.198;2024-01-30T10:36:05;23.43;;;7.23;;
75156;SDS011;63736;50.076;8.198;2024-01-30T10:37:35;27.80;;;7.95;;
75156;SDS011;63736;50.076;8.198;2024-01-30T10:39:06;32.77;;;7.90;;
75156;SDS011;63736;50.076;8.198;2024-01-30T10:40:36;28.53;;;7.60;;
75156;SDS011;63736;50.076;8.198;2024-01-30T10:42:17;43.47;;;9.07;;
75156;SDS011;63736;50.076;8.198;2024-01-30T10:43:50;29.95;;;8.52;;
75156;SDS011;63736;50.076;8.198;2024-01-30T10:45:31;26.77;;;7.47;;
75156;SDS011;63736;50.076;8.198;2024-01-30T10:47:03;28.08;;;7.70;;
75156;SDS011;63736;50.076;8.198;2024-01-30T10:48:42;32.13;;;8.18;;
75156;SDS011;63736;50.076;8.198;2024-01-30T10:50:14;37.42;;;8.57;;
75156;SDS011;63736;50.076;8.198;2024-01-30T10:51:45;26.60;;;7.77;;
75156;SDS011;63736;50.076;8.198;2024-01-30T10:53:16;32.00;;;7.72;;
75156;SDS011;63736;50.076;8.198;2024-01-30T10:54:48;28.25;;;7.28;;
75156;SDS011;63736;50.076;8.198;2024-01-30T10:56:23;33.33;;;8.05;;
75156;SDS011;63736;50.076;8.198;2024-01-30T10:57:54;29.92;;;7.65;;
75156;SDS011;63736;50.076;8.198;2024-01-30T10:59:24;21.53;;;7.50;;
75156;SDS011;63736;50.076;8.198;2024-01-30T11:00:55;23.98;;;6.93;;
75156;SDS011;63736;50.076;8.198;2024-01-30T11:02:26;28.30;;;7.40;;
75156;SDS011;63736;50.076;8.198;2024-01-30T11:03:57;26.33;;;7.82;;
75156;SDS011;63736;50.076;8.198;2024-01-30T11:05:28;27.57;;;7.27;;
75156;SDS011;63736;50.076;8.198;2024-01-30T11:06:59;33.50;;;7.15;;
75156;SDS011;63736;50.076;8.198;2024-01-30T11:08:34;27.02;;;7.85;;
75156;SDS011;63736;50.076;8.198;2024-01-30T11:10:04;26.15;;;7.30;;
75156;SDS011;63736;50.076;8.198;2024-01-30T11:11:55;23.33;;;7.13;;
75156;SDS011;63736;50.076;8.198;2024-01-30T11:13:30;20.75;;;7.40;;
75156;SDS011;63736;50.076;8.198;2024-01-30T11:15:07;25.00;;;7.10;;
75156;SDS011;63736;50.076;8.198;2024-01-30T11:16:48;31.47;;;7.60;;
75156;SDS011;63736;50.076;8.198;2024-01-30T11:18:22;23.92;;;7.43;;
75156;SDS011;63736;50.076;8.198;2024-01-30T11:19:58;25.23;;;7.25;;
75156;SDS011;63736;50.076;8.198;2024-01-30T11:21:29;24.13;;;7.63;;
75156;SDS011;63736;50.076;8.198;2024-01-30T11:22:59;26.03;;;8.30;;
75156;SDS011;63736;50.076;8.198;2024-01-30T11:24:36;25.95;;;7.55;;
75156;SDS011;63736;50.076;8.198;2024-01-30T11:26:10;34.95;;;7.82;;
75156;SDS011;63736;50.076;8.198;2024-01-30T11:27:42;26.27;;;7.78;;
75156;SDS011;63736;50.076;8.198;2024-01-30T11:29:13;27.75;;;8.20;;
75156;SDS011;63736;50.076;8.198;2024-01-30T11:30:43;25.37;;;7.10;;
75156;SDS011;63736;50.076;8.198;2024-01-30T11:32:16;21.45;;;7.28;;
75156;SDS011;63736;50.076;8.198;2024-01-30T11:33:53;29.13;;;8.20;;
75156;SDS011;63736;50.076;8.198;2024-01-30T11:35:25;27.70;;;8.05;;
75156;SDS011;63736;50.076;8.198;2024-01-30T11:36:56;25.50;;;7.23;;
75156;SDS011;63736;50.076;8.198;2024-01-30T11:38:30;21.10;;;7.43;;
75156;SDS011;63736;50.076;8.198;2024-01-30T11:40:00;22.00;;;7.87;;
75156;SDS011;63736;50.076;8.198;2024-01-30T11:41:33;27.15;;;7.70;;
75156;SDS011;63736;50.076;8.198;2024-01-30T11:43:04;25.05;;;7.78;;
75156;SDS011;63736;50.076;8.198;2024-01-30T11:44:35;23.67;;;7.80;;
75156;SDS011;63736;50.076;8.198;2024-01-30T11:46:06;23.07;;;7.27;;
75156;SDS011;63736;50.076;8.198;2024-01-30T11:47:37;27.33;;;7.18;;
75156;SDS011;63736;50.076;8.198;2024-01-30T11:49:08;23.05;;;7.80;;
75156;SDS011;63736;50.076;8.198;2024-01-30T11:50:39;25.77;;;7.97;;
75156;SDS011;63736;50.076;8.198;2024-01-30T11:52:14;22.42;;;7.65;;
75156;SDS011;63736;50.076;8.198;2024-01-30T11:53:44;22.57;;;7.73;;
75156;SDS011;63736;50.076;8.198;2024-01-30T11:55:15;21.10;;;8.33;;
75156;SDS011;63736;50.076;8.198;2024-01-30T11:56:46;27.52;;;9.10;;
75156;SDS011;63736;50.076;8.198;2024-01-30T11:58:16;32.27;;;9.60;;
75156;SDS011;63736;50.076;8.198;2024-01-30T11:59:47;27.75;;;9.20;;
75156;SDS011;63736;50.076;8.198;2024-01-30T12:01:17;23.23;;;8.07;;
75156;SDS011;63736;50.076;8.198;2024-01-30T12:02:54;24.73;;;8.20;;
75156;SDS011;63736;50.076;8.198;2024-01-30T12:04:30;27.70;;;8.02;;
75156;SDS011;63736;50.076;8.198;2024-01-30T12:06:00;25.20;;;7.77;;
75156;SDS011;63736;50.076;8.198;2024-01-30T12:07:33;19.00;;;7.53;;
75156;SDS011;63736;50.076;8.198;2024-01-30T12:09:03;30.20;;;8.15;;
75156;SDS011;63736;50.076;8.198;2024-01-30T12:10:34;22.43;;;7.20;;
75156;SDS011;63736;50.076;8.198;2024-01-30T12:12:04;26.83;;;7.80;;
75156;SDS011;63736;50.076;8.198;2024-01-30T12:13:36;24.00;;;7.72;;
75156;SDS011;63736;50.076;8.198;2024-01-30T12:15:07;26.95;;;8.15;;
75156;SDS011;63736;50.076;8.198;2024-01-30T12:24:22;22.30;;;13.90;;
75156;SDS011;63736;50.076;8.198;2024-01-30T12:25:53;22.38;;;14.75;;
75156;SDS011;63736;50.076;8.198;2024-01-30T12:27:23;21.07;;;12.30;;
75156;SDS011;63736;50.076;8.198;2024-01-30T12:28:54;21.03;;;13.27;;
75156;SDS011;63736;50.076;8.198;2024-01-30T12:30:25;23.38;;;15.30;;
75156;SDS011;63736;50.076;8.198;2024-01-30T12:31:55;23.47;;;13.70;;
75156;SDS011;63736;50.076;8.198;2024-01-30T12:33:27;20.75;;;14.50;;
75156;SDS011;63736;50.076;8.198;2024-01-30T12:34:58;24.25;;;15.27;;
75156;SDS011;63736;50.076;8.198;2024-01-30T12:36:29;23.80;;;15.60;;
75156;SDS011;63736;50.076;8.198;2024-01-30T12:38:01;19.42;;;12.48;;
75156;SDS011;63736;50.076;8.198;2024-01-30T12:39:32;23.30;;;14.35;;
75156;SDS011;63736;50.076;8.198;2024-01-30T12:41:02;22.03;;;13.90;;
75156;SDS011;63736;50.076;8.198;2024-01-30T12:42:33;25.23;;;14.07;;
75156;SDS011;63736;50.076;8.198;2024-01-30T12:44:03;22.27;;;14.13;;
75156;SDS011;63736;50.076;8.198;2024-01-30T12:45:34;20.23;;;12.70;;
75156;SDS011;63736;50.076;8.198;2024-01-30T12:47:05;22.65;;;13.82;;
75156;SDS011;63736;50.076;8.198;2024-01-30T12:48:36;29.40;;;17.10;;
75156;SDS011;63736;50.076;8.198;2024-01-30T12:50:06;29.23;;;17.08;;
75156;SDS011;63736;50.076;8.198;2024-01-30T12:51:36;26.13;;;16.00;;
75156;SDS011;63736;50.076;8.198;2024-01-30T12:53:07;22.60;;;14.23;;
75156;SDS011;63736;50.076;8.198;2024-01-30T12:54:39;25.52;;;15.60;;
75156;SDS011;63736;50.076;8.198;2024-01-30T12:56:09;26.73;;;15.00;;
75156;SDS011;63736;50.076;8.198;2024-01-30T12:57:40;25.97;;;15.53;;
75156;SDS011;63736;50.076;8.198;2024-01-30T12:59:10;22.87;;;14.20;;
75156;SDS011;63736;50.076;8.198;2024-01-30T13:00:40;28.70;;;16.23;;
75156;SDS011;63736;50.076;8.198;2024-01-30T13:02:13;26.10;;;16.23;;
75156;SDS011;63736;50.076;8.198;2024-01-30T13:03:44;28.90;;;16.45;;
75156;SDS011;63736;50.076;8.198;2024-01-30T13:05:15;24.90;;;14.80;;
75156;SDS011;63736;50.076;8.198;2024-01-30T13:06:45;26.42;;;15.40;;
75156;SDS011;63736;50.076;8.198;2024-01-30T13:08:15;23.80;;;15.23;;
75156;SDS011;63736;50.076;8.198;2024-01-30T13:09:46;28.67;;;18.03;;
75156;SDS011;63736;50.076;8.198;2024-01-30T13:11:17;27.80;;;16.90;;
75156;SDS011;63736;50.076;8.198;2024-01-30T13:12:48;25.60;;;15.20;;
75156;SDS011;63736;50.076;8.198;2024-01-30T13:14:18;31.57;;;16.77;;
75156;SDS011;63736;50.076;8.198;2024-01-30T13:15:49;25.20;;;15.48;;
75156;SDS011;63736;50.076;8.198;2024-01-30T13:17:19;28.40;;;16.58;;
75156;SDS011;63736;50.076;8.198;2024-01-30T13:18:50;23.33;;;13.77;;
75156;SDS011;63736;50.076;8.198;2024-01-30T13:20:20;27.67;;;15.20;;
75156;SDS011;63736;50.076;8.198;2024-01-30T13:21:50;26.63;;;16.47;;
75156;SDS011;63736;50.076;8.198;2024-01-30T13:23:21;30.20;;;17.10;;
75156;SDS011;63736;50.076;8.198;2024-01-30T13:24:51;25.60;;;13.95;;
75156;SDS011;63736;50.076;8.198;2024-01-30T13:26:21;25.17;;;13.50;;
75156;SDS011;63736;50.076;8.198;2024-01-30T13:27:52;22.13;;;12.10;;
75156;SDS011;63736;50.076;8.198;2024-01-30T13:29:22;26.33;;;16.87;;
75156;SDS011;63736;50.076;8.198;2024-01-30T13:30:52;21.38;;;13.15;;
75156;SDS011;63736;50.076;8.198;2024-01-30T13:32:23;23.33;;;14.17;;
75156;SDS011;63736;50.076;8.198;2024-01-30T13:33:53;22.10;;;14.13;;
75156;SDS011;63736;50.076;8.198;2024-01-30T13:35:24;26.95;;;14.88;;
75156;SDS011;63736;50.076;8.198;2024-01-30T13:36:54;26.27;;;14.47;;
75156;SDS011;63736;50.076;8.198;2024-01-30T13:38:25;22.50;;;13.83;;
75156;SDS011;63736;50.076;8.198;2024-01-30T13:39:55;22.67;;;13.20;;
75156;SDS011;63736;50.076;8.198;2024-01-30T13:41:26;19.92;;;13.02;;
75156;SDS011;63736;50.076;8.198;2024-01-30T13:42:57;22.70;;;13.18;;
75156;SDS011;63736;50.076;8.198;2024-01-30T13:44:27;25.43;;;15.13;;
75156;SDS011;63736;50.076;8.198;2024-01-30T13:45:57;25.77;;;12.90;;
75156;SDS011;63736;50.076;8.198;2024-01-30T13:47:28;24.00;;;13.87;;
75156;SDS011;63736;50.076;8.198;2024-01-30T13:48:58;24.77;;;15.10;;
75156;SDS011;63736;50.076;8.198;2024-01-30T13:50:28;22.60;;;14.00;;
75156;SDS011;63736;50.076;8.198;2024-01-30T13:51:59;23.92;;;13.00;;
75156;SDS011;63736;50.076;8.198;2024-01-30T13:53:29;22.57;;;14.60;;
75156;SDS011;63736;50.076;8.198;2024-01-30T13:54:59;22.77;;;14.33;;
75156;SDS011;63736;50.076;8.198;2024-01-30T13:56:30;27.07;;;15.97;;
75156;SDS011;63736;50.076;8.198;2024-01-30T13:58:01;26.10;;;15.52;;
75156;SDS011;63736;50.076;8.198;2024-01-30T13:59:34;27.88;;;17.52;;
75156;SDS011;63736;50.076;8.198;2024-01-30T14:01:04;28.50;;;16.67;;
75156;SDS011;63736;50.076;8.198;2024-01-30T14:02:34;27.50;;;16.03;;
75156;SDS011;63736;50.076;8.198;2024-01-30T14:04:05;27.02;;;16.38;;
75156;SDS011;63736;50.076;8.198;2024-01-30T14:05:35;23.60;;;14.80;;
75156;SDS011;63736;50.076;8.198;2024-01-30T14:07:06;22.60;;;13.73;;
75156;SDS011;63736;50.076;8.198;2024-01-30T14:08:36;25.77;;;14.67;;
75156;SDS011;63736;50.076;8.198;2024-01-30T14:10:07;41.17;;;26.63;;
75156;SDS011;63736;50.076;8.198;2024-01-30T14:11:37;38.22;;;23.90;;
75156;SDS011;63736;50.076;8.198;2024-01-30T14:13:08;44.40;;;27.20;;
75156;SDS011;63736;50.076;8.198;2024-01-30T14:14:38;25.73;;;15.77;;
75156;SDS011;63736;50.076;8.198;2024-01-30T14:16:08;24.40;;;15.00;;
75156;SDS011;63736;50.076;8.198;2024-01-30T14:17:39;26.92;;;14.82;;
75156;SDS011;63736;50.076;8.198;2024-01-30T14:19:09;26.03;;;14.10;;
75156;SDS011;63736;50.076;8.198;2024-01-30T14:20:40;26.27;;;13.43;;
75156;SDS011;63736;50.076;8.198;2024-01-30T14:22:10;26.90;;;14.33;;
75156;SDS011;63736;50.076;8.198;2024-01-30T14:23:40;24.15;;;14.38;;
75156;SDS011;63736;50.076;8.198;2024-01-30T14:25:11;23.77;;;13.40;;
75156;SDS011;63736;50.076;8.198;2024-01-30T14:26:42;25.97;;;14.20;;
75156;SDS011;63736;50.076;8.198;2024-01-30T14:28:12;24.57;;;14.10;;
75156;SDS011;63736;50.076;8.198;2024-01-30T14:29:43;26.00;;;14.63;;
75156;SDS011;63736;50.076;8.198;2024-01-30T14:31:14;22.75;;;13.93;;
75156;SDS011;63736;50.076;8.198;2024-01-30T14:32:44;25.10;;;13.83;;
75156;SDS011;63736;50.076;8.198;2024-01-30T14:34:14;24.38;;;15.15;;
75156;SDS011;63736;50.076;8.198;2024-01-30T14:35:45;22.07;;;13.93;;
75156;SDS011;63736;50.076;8.198;2024-01-30T14:37:15;21.87;;;13.33;;
75156;SDS011;63736;50.076;8.198;2024-01-30T14:38:46;23.95;;;14.02;;
75156;SDS011;63736;50.076;8.198;2024-01-30T14:40:17;22.50;;;14.13;;
75156;SDS011;63736;50.076;8.198;2024-01-30T14:41:48;23.73;;;12.82;;
75156;SDS011;63736;50.076;8.198;2024-01-30T14:43:18;22.37;;;12.93;;
75156;SDS011;63736;50.076;8.198;2024-01-30T14:44:48;25.93;;;14.00;;
75156;SDS011;63736;50.076;8.198;2024-01-30T14:46:19;24.70;;;12.97;;
75156;SDS011;63736;50.076;8.198;2024-01-30T14:47:49;22.52;;;12.85;;
75156;SDS011;63736;50.076;8.198;2024-01-30T14:49:20;24.63;;;14.10;;
75156;SDS011;63736;50.076;8.198;2024-01-30T14:50:50;23.25;;;13.88;;
75156;SDS011;63736;50.076;8.198;2024-01-30T14:52:21;25.23;;;14.40;;
75156;SDS011;63736;50.076;8.198;2024-01-30T14:53:51;25.77;;;14.07;;
75156;SDS011;63736;50.076;8.198;2024-01-30T14:55:22;21.60;;;13.30;;
75156;SDS011;63736;50.076;8.198;2024-01-30T14:56:52;22.97;;;12.43;;
75156;SDS011;63736;50.076;8.198;2024-01-30T14:58:23;23.43;;;12.77;;
75156;SDS011;63736;50.076;8.198;2024-01-30T14:59:53;21.03;;;12.30;;
75156;SDS011;63736;50.076;8.198;2024-01-30T15:01:26;22.30;;;12.18;;
75156;SDS011;63736;50.076;8.198;2024-01-30T15:02:57;22.87;;;12.90;;
75156;SDS011;63736;50.076;8.198;2024-01-30T15:04:27;19.53;;;11.10;;
75156;SDS011;63736;50.076;8.198;2024-01-30T15:05:58;21.33;;;12.85;;
75156;SDS011;63736;50.076;8.198;2024-01-30T15:07:28;20.60;;;11.20;;
75156;SDS011;63736;50.076;8.198;2024-01-30T15:08:59;18.37;;;11.53;;
75156;SDS011;63736;50.076;8.198;2024-01-30T15:10:29;22.30;;;11.60;;
75156;SDS011;63736;50.076;8.198;2024-01-30T15:11:59;19.90;;;11.55;;
75156;SDS011;63736;50.076;8.198;2024-01-30T15:13:30;22.20;;;12.73;;
75156;SDS011;63736;50.076;8.198;2024-01-30T15:15:00;19.70;;;12.03;;
75156;SDS011;63736;50.076;8.198;2024-01-30T15:16:31;26.43;;;14.47;;
75156;SDS011;63736;50.076;8.198;2024-01-30T15:18:01;20.27;;;12.65;;
75156;SDS011;63736;50.076;8.198;2024-01-30T15:19:31;25.30;;;16.00;;
75156;SDS011;63736;50.076;8.198;2024-01-30T15:21:01;20.80;;;13.03;;
75156;SDS011;63736;50.076;8.198;2024-01-30T15:22:32;24.77;;;14.90;;
75156;SDS011;63736;50.076;8.198;2024-01-30T15:24:02;25.60;;;13.50;;
75156;SDS011;63736;50.076;8.198;2024-01-30T15:25:33;24.63;;;15.10;;
75156;SDS011;63736;50.076;8.198;2024-01-30T15:27:03;20.67;;;12.47;;
75156;SDS011;63736;50.076;8.198;2024-01-30T15:28:34;25.83;;;14.40;;
75156;SDS011;63736;50.076;8.198;2024-01-30T15:30:06;22.38;;;12.00;;
75156;SDS011;63736;50.076;8.198;2024-01-30T15:31:37;23.70;;;14.67;;
75156;SDS011;63736;50.076;8.198;2024-01-30T15:33:07;22.53;;;13.17;;
75156;SDS011;63736;50.076;8.198;2024-01-30T15:34:38;25.27;;;12.07;;
75156;SDS011;63736;50.076;8.198;2024-01-30T15:36:08;29.27;;;15.13;;
75156;SDS011;63736;50.076;8.198;2024-01-30T15:37:39;23.10;;;13.00;;
75156;SDS011;63736;50.076;8.198;2024-01-30T15:39:09;21.13;;;13.23;;
75156;SDS011;63736;50.076;8.198;2024-01-30T15:40:41;21.00;;;12.25;;
75156;SDS011;63736;50.076;8.198;2024-01-30T15:42:11;22.00;;;11.00;;
75156;SDS011;63736;50.076;8.198;2024-01-30T15:43:41;19.30;;;11.23;;
75156;SDS011;63736;50.076;8.198;2024-01-30T15:45:11;27.13;;;15.37;;
75156;SDS011;63736;50.076;8.198;2024-01-30T15:46:42;20.23;;;12.23;;
75156;SDS011;63736;50.076;8.198;2024-01-30T15:48:12;18.77;;;12.03;;
75156;SDS011;63736;50.076;8.198;2024-01-30T15:49:42;19.40;;;11.43;;
75156;SDS011;63736;50.076;8.198;2024-01-30T15:51:13;21.55;;;12.68;;
75156;SDS011;63736;50.076;8.198;2024-01-30T15:52:43;20.17;;;12.57;;
75156;SDS011;63736;50.076;8.198;2024-01-30T15:54:13;19.43;;;11.67;;
75156;SDS011;63736;50.076;8.198;2024-01-30T15:55:43;30.87;;;14.70;;
75156;SDS011;63736;50.076;8.198;2024-01-30T15:57:14;21.63;;;12.47;;
75156;SDS011;63736;50.076;8.198;2024-01-30T15:58:44;25.60;;;15.47;;
75156;SDS011;63736;50.076;8.198;2024-01-30T16:00:19;24.75;;;14.52;;
75156;SDS011;63736;50.076;8.198;2024-01-30T16:01:49;25.83;;;14.37;;
75156;SDS011;63736;50.076;8.198;2024-01-30T16:03:20;23.27;;;13.50;;
75156;SDS011;63736;50.076;8.198;2024-01-30T16:04:50;22.70;;;13.00;;
75156;SDS011;63736;50.076;8.198;2024-01-30T16:06:20;20.77;;;12.40;;
75156;SDS011;63736;50.076;8.198;2024-01-30T16:07:51;20.83;;;12.52;;
75156;SDS011;63736;50.076;8.198;2024-01-30T16:09:24;32.60;;;12.87;;
75156;SDS011;63736;50.076;8.198;2024-01-30T16:10:54;21.10;;;12.32;;
75156;SDS011;63736;50.076;8.198;2024-01-30T16:12:24;22.67;;;13.13;;
75156;SDS011;63736;50.076;8.198;2024-01-30T16:13:54;21.60;;;13.07;;
75156;SDS011;63736;50.076;8.198;2024-01-30T16:15:25;23.50;;;13.50;;
75156;SDS011;63736;50.076;8.198;2024-01-30T16:16:55;23.48;;;12.65;;
75156;SDS011;63736;50.076;8.198;2024-01-30T16:18:26;24.57;;;13.83;;
75156;SDS011;63736;50.076;8.198;2024-01-30T16:19:56;22.00;;;12.83;;
75156;SDS011;63736;50.076;8.198;2024-01-30T16:21:27;20.80;;;12.53;;
75156;SDS011;63736;50.076;8.198;2024-01-30T16:22:57;21.33;;;12.52;;
75156;SDS011;63736;50.076;8.198;2024-01-30T16:24:27;21.60;;;12.17;;
75156;SDS011;63736;50.076;8.198;2024-01-30T16:25:58;23.20;;;11.80;;
75156;SDS011;63736;50.076;8.198;2024-01-30T16:27:28;20.33;;;11.83;;
75156;SDS011;63736;50.076;8.198;2024-01-30T16:28:58;24.42;;;13.13;;
75156;SDS011;63736;50.076;8.198;2024-01-30T16:30:29;23.53;;;12.20;;
75156;SDS011;63736;50.076;8.198;2024-01-30T16:31:59;33.60;;;15.40;;
75156;SDS011;63736;50.076;8.198;2024-01-30T16:33:29;19.43;;;11.47;;
75156;SDS011;63736;50.076;8.198;2024-01-30T16:35:01;22.70;;;12.48;;
75156;SDS011;63736;50.076;8.198;2024-01-30T16:36:31;22.20;;;12.37;;
75156;SDS011;63736;50.076;8.198;2024-01-30T16:38:01;24.43;;;11.93;;
75156;SDS011;63736;50.076;8.198;2024-01-30T16:39:31;20.47;;;11.97;;
75156;SDS011;63736;50.076;8.198;2024-01-30T16:41:02;20.17;;;13.23;;
75156;SDS011;63736;50.076;8.198;2024-01-30T16:42:32;21.23;;;12.93;;
75156;SDS011;63736;50.076;8.198;2024-01-30T16:44:04;19.93;;;12.03;;
75156;SDS011;63736;50.076;8.198;2024-01-30T16:45:34;19.70;;;11.90;;
75156;SDS011;63736;50.076;8.198;2024-01-30T16:47:04;21.10;;;12.93;;
75156;SDS011;63736;50.076;8.198;2024-01-30T16:48:35;19.80;;;12.37;;
75156;SDS011;63736;50.076;8.198;2024-01-30T16:50:05;22.33;;;13.03;;
75156;SDS011;63736;50.076;8.198;2024-01-30T16:51:35;25.27;;;13.83;;
75156;SDS011;63736;50.076;8.198;2024-01-30T16:53:06;23.50;;;14.13;;
75156;SDS011;63736;50.076;8.198;2024-01-30T16:54:36;24.10;;;13.30;;
75156;SDS011;63736;50.076;8.198;2024-01-30T16:56:07;22.53;;;13.40;;
75156;SDS011;63736;50.076;8.198;2024-01-30T16:57:37;28.08;;;13.43;;
75156;SDS011;63736;50.076;8.198;2024-01-30T16:59:08;20.87;;;12.93;;
75156;SDS011;63736;50.076;8.198;2024-01-30T17:00:38;24.00;;;12.93;;
75156;SDS011;63736;50.076;8.198;2024-01-30T17:02:08;18.60;;;11.57;;
75156;SDS011;63736;50.076;8.198;2024-01-30T17:03:39;21.67;;;12.50;;
75156;SDS011;63736;50.076;8.198;2024-01-30T17:05:11;25.23;;;14.50;;
75156;SDS011;63736;50.076;8.198;2024-01-30T17:06:42;24.42;;;12.52;;
75156;SDS011;63736;50.076;8.198;2024-01-30T17:08:12;22.73;;;13.40;;
75156;SDS011;63736;50.076;8.198;2024-01-30T17:09:43;25.10;;;14.50;;
75156;SDS011;63736;50.076;8.198;2024-01-30T17:11:13;23.57;;;13.50;;
75156;SDS011;63736;50.076;8.198;2024-01-30T17:12:43;25.58;;;13.93;;
75156;SDS011;63736;50.076;8.198;2024-01-30T17:14:14;22.83;;;12.53;;
75156;SDS011;63736;50.076;8.198;2024-01-30T17:15:46;19.55;;;12.02;;
75156;SDS011;63736;50.076;8.198;2024-01-30T17:17:16;23.40;;;12.87;;
75156;SDS011;63736;50.076;8.198;2024-01-30T17:18:47;26.40;;;14.30;;
75156;SDS011;63736;50.076;8.198;2024-01-30T17:20:17;22.85;;;13.02;;
75156;SDS011;63736;50.076;8.198;2024-01-30T17:21:47;23.07;;;12.70;;
75156;SDS011;63736;50.076;8.198;2024-01-30T17:23:18;22.97;;;11.47;;
75156;SDS011;63736;50.076;8.198;2024-01-30T17:24:50;22.58;;;13.25;;
75156;SDS011;63736;50.076;8.198;2024-01-30T17:26:20;23.47;;;13.50;;
75156;SDS011;63736;50.076;8.198;2024-01-30T17:27:51;21.83;;;11.53;;
75156;SDS011;63736;50.076;8.198;2024-01-30T17:29:22;19.40;;;11.53;;
75156;SDS011;63736;50.076;8.198;2024-01-30T17:30:52;27.33;;;13.67;;
75156;SDS011;63736;50.076;8.198;2024-01-30T17:32:22;26.07;;;16.10;;
75156;SDS011;63736;50.076;8.198;2024-01-30T17:33:55;23.23;;;13.65;;
75156;SDS011;63736;50.076;8.198;2024-01-30T17:35:25;21.98;;;13.35;;
75156;SDS011;63736;50.076;8.198;2024-01-30T17:36:56;26.10;;;14.00;;
75156;SDS011;63736;50.076;8.198;2024-01-30T17:38:26;20.27;;;11.90;;
75156;SDS011;63736;50.076;8.198;2024-01-30T17:39:57;22.50;;;13.57;;
75156;SDS011;63736;50.076;8.198;2024-01-30T17:41:27;26.75;;;15.45;;
75156;SDS011;63736;50.076;8.198;2024-01-30T17:42:57;21.77;;;13.57;;
75156;SDS011;63736;50.076;8.198;2024-01-30T17:44:28;21.80;;;12.50;;
75156;SDS011;63736;50.076;8.198;2024-01-30T17:45:58;20.37;;;12.07;;
75156;SDS011;63736;50.076;8.198;2024-01-30T17:47:29;19.15;;;10.82;;
75156;SDS011;63736;50.076;8.198;2024-01-30T17:49:00;19.07;;;10.90;;
75156;SDS011;63736;50.076;8.198;2024-01-30T17:50:30;17.88;;;11.32;;
75156;SDS011;63736;50.076;8.198;2024-01-30T17:52:01;19.20;;;11.90;;
75156;SDS011;63736;50.076;8.198;2024-01-30T17:53:32;18.23;;;10.43;;
75156;SDS011;63736;50.076;8.198;2024-01-30T17:55:03;21.80;;;12.13;;
75156;SDS011;63736;50.076;8.198;2024-01-30T17:56:33;40.73;;;30.17;;
75156;SDS011;63736;50.076;8.198;2024-01-30T17:58:03;34.47;;;23.80;;
75156;SDS011;63736;50.076;8.198;2024-01-30T17:59:36;33.88;;;21.73;;
75156;SDS011;63736;50.076;8.198;2024-01-30T18:01:06;105.40;;;62.67;;
75156;SDS011;63736;50.076;8.198;2024-01-30T18:02:37;42.30;;;22.58;;
75156;SDS011;63736;50.076;8.198;2024-01-30T18:04:07;30.57;;;18.13;;
75156;SDS011;63736;50.076;8.198;2024-01-30T18:05:39;32.97;;;19.05;;
75156;SDS011;63736;50.076;8.198;2024-01-30T18:07:09;47.60;;;28.93;;
75156;SDS011;63736;50.076;8.198;2024-01-30T18:08:39;34.70;;;21.03;;
75156;SDS011;63736;50.076;8.198;2024-01-30T18:10:10;29.83;;;18.20;;
75156;SDS011;63736;50.076;8.198;2024-01-30T18:11:42;29.55;;;16.08;;
75156;SDS011;63736;50.076;8.198;2024-01-30T18:13:13;25.77;;;14.50;;
75156;SDS011;63736;50.076;8.198;2024-01-30T18:14:44;25.60;;;14.23;;
75156;SDS011;63736;50.076;8.198;2024-01-30T18:16:15;24.17;;;14.20;;
75156;SDS011;63736;50.076;8.198;2024-01-30T18:17:46;29.67;;;15.57;;
75156;SDS011;63736;50.076;8.198;2024-01-30T18:19:16;22.67;;;13.30;;
75156;SDS011;63736;50.076;8.198;2024-01-30T18:20:47;27.67;;;17.20;;
75156;SDS011;63736;50.076;8.198;2024-01-30T18:22:18;31.50;;;16.87;;
75156;SDS011;63736;50.076;8.198;2024-01-30T18:23:48;26.00;;;16.03;;
75156;SDS011;63736;50.076;8.198;2024-01-30T18:25:18;28.70;;;17.38;;